sensor_id;sensor_type;location;lat;lon;timestamp;temperature;humidity
7206;DHT22;3644;53.480;10.004;2022-10-16T00:00:43;16.20;99.90
7206;DHT22;3644;53.480;10.004;2022-10-16T00:03:09;16.30;99.90
7206;DHT22;3644;53.480;10.004;2022-10-16T00:05:42;16.30;99.90
7206;DHT22;3644;53.480;10.004;2022-10-16T00:08:09;16.20;99.90
7206;DHT22;3644;53.480;10.004;2022-10-16T00:10:35;16.20;99.90
7206;DHT22;3644;53.480;10.004;2022-10-16T00:13:01;16.20;99.90
7206;DHT22;3644;53.480;10.004;2022-10-16T00:15:27;16.20;99.90
7206;DHT22;3644;53.480;10.004;2022-10-16T00:17:52;16.20;99.90
7206;DHT22;3644;53.480;10.004;2022-10-16T00:20:18;16.20;99.90
7206;DHT22;3644;53.480;10.004;2022-10-16T00:22:43;16.20;99.90
7206;DHT22;3644;53.480;10.004;2022-10-16T00:25:09;16.20;99.90
7206;DHT22;3644;53.480;10.004;2022-10-16T00:27:35;16.20;99.90
7206;DHT22;3644;53.480;10.004;2022-10-16T00:30:00;16.20;99.90
7206;DHT22;3644;53.480;10.004;2022-10-16T00:32:26;16.20;99.90
7206;DHT22;3644;53.480;10.004;2022-10-16T00:34:51;16.20;99.90
7206;DHT22;3644;53.480;10.004;2022-10-16T00:37:20;16.10;99.90
7206;DHT22;3644;53.480;10.004;2022-10-16T00:39:45;16.10;99.90
7206;DHT22;3644;53.480;10.004;2022-10-16T00:42:18;16.00;99.90
7206;DHT22;3644;53.480;10.004;2022-10-16T00:44:52;16.00;99.90
7206;DHT22;3644;53.480;10.004;2022-10-16T00:47:22;16.00;99.90
7206;DHT22;3644;53.480;10.004;2022-10-16T00:49:51;16.00;99.90
7206;DHT22;3644;53.480;10.004;2022-10-16T00:52:19;16.00;99.90
7206;DHT22;3644;53.480;10.004;2022-10-16T00:54:46;16.00;99.90
7206;DHT22;3644;53.480;10.004;2022-10-16T00:57:12;15.90;99.90
7206;DHT22;3644;53.480;10.004;2022-10-16T00:59:39;16.00;99.90
7206;DHT22;3644;53.480;10.004;2022-10-16T01:02:08;16.00;99.90
7206;DHT22;3644;53.480;10.004;2022-10-16T01:04:38;15.90;99.90
7206;DHT22;3644;53.480;10.004;2022-10-16T01:13:10;15.90;99.90
7206;DHT22;3644;53.480;10.004;2022-10-16T01:15:55;15.90;99.90
7206;DHT22;3644;53.480;10.004;2022-10-16T01:18:36;15.80;99.90
7206;DHT22;3644;53.480;10.004;2022-10-16T01:21:06;15.80;99.90
7206;DHT22;3644;53.480;10.004;2022-10-16T01:29:15;15.80;99.90
7206;DHT22;3644;53.480;10.004;2022-10-16T01:31:46;15.70;99.90
7206;DHT22;3644;53.480;10.004;2022-10-16T01:34:18;15.70;99.90
7206;DHT22;3644;53.480;10.004;2022-10-16T01:36:52;15.70;99.90
7206;DHT22;3644;53.480;10.004;2022-10-16T01:39:23;15.60;99.90
7206;DHT22;3644;53.480;10.004;2022-10-16T01:41:55;15.60;99.90
7206;DHT22;3644;53.480;10.004;2022-10-16T01:44:26;15.60;99.90
7206;DHT22;3644;53.480;10.004;2022-10-16T01:46:55;15.70;99.90
7206;DHT22;3644;53.480;10.004;2022-10-16T01:49:23;15.60;99.90
7206;DHT22;3644;53.480;10.004;2022-10-16T01:51:54;15.60;99.90
7206;DHT22;3644;53.480;10.004;2022-10-16T01:54:22;15.50;99.90
7206;DHT22;3644;53.480;10.004;2022-10-16T01:56:50;15.50;99.90
7206;DHT22;3644;53.480;10.004;2022-10-16T01:59:19;15.50;99.90
7206;DHT22;3644;53.480;10.004;2022-10-16T02:01:52;15.50;99.90
7206;DHT22;3644;53.480;10.004;2022-10-16T02:04:31;15.50;99.90
7206;DHT22;3644;53.480;10.004;2022-10-16T02:06:58;15.50;99.90
7206;DHT22;3644;53.480;10.004;2022-10-16T02:09:24;15.50;99.90
7206;DHT22;3644;53.480;10.004;2022-10-16T02:11:50;15.40;99.90
7206;DHT22;3644;53.480;10.004;2022-10-16T02:14:17;15.40;99.90
7206;DHT22;3644;53.480;10.004;2022-10-16T02:16:45;15.40;99.90
7206;DHT22;3644;53.480;10.004;2022-10-16T02:19:13;15.30;99.90
7206;DHT22;3644;53.480;10.004;2022-10-16T02:21:44;15.30;99.90
7206;DHT22;3644;53.480;10.004;2022-10-16T02:27:28;15.30;99.90
7206;DHT22;3644;53.480;10.004;2022-10-16T02:30:05;15.30;99.90
7206;DHT22;3644;53.480;10.004;2022-10-16T02:32:34;15.30;99.90
7206;DHT22;3644;53.480;10.004;2022-10-16T02:35:01;15.20;99.90
7206;DHT22;3644;53.480;10.004;2022-10-16T02:37:28;15.20;99.90
7206;DHT22;3644;53.480;10.004;2022-10-16T02:39:55;15.20;99.90
7206;DHT22;3644;53.480;10.004;2022-10-16T02:42:21;15.20;99.90
7206;DHT22;3644;53.480;10.004;2022-10-16T02:44:52;15.20;99.90
7206;DHT22;3644;53.480;10.004;2022-10-16T02:47:18;15.10;99.90
7206;DHT22;3644;53.480;10.004;2022-10-16T02:49:43;15.10;99.90
7206;DHT22;3644;53.480;10.004;2022-10-16T02:52:09;15.20;99.90
7206;DHT22;3644;53.480;10.004;2022-10-16T02:54:34;15.10;99.90
7206;DHT22;3644;53.480;10.004;2022-10-16T02:57:00;15.10;99.90
7206;DHT22;3644;53.480;10.004;2022-10-16T02:59:25;15.10;99.90
7206;DHT22;3644;53.480;10.004;2022-10-16T03:01:51;15.00;99.90
7206;DHT22;3644;53.480;10.004;2022-10-16T03:04:16;15.00;99.90
7206;DHT22;3644;53.480;10.004;2022-10-16T03:06:42;14.90;99.90
7206;DHT22;3644;53.480;10.004;2022-10-16T03:09:07;14.80;99.90
7206;DHT22;3644;53.480;10.004;2022-10-16T03:11:33;14.90;99.90
7206;DHT22;3644;53.480;10.004;2022-10-16T03:13:58;14.80;99.90
7206;DHT22;3644;53.480;10.004;2022-10-16T03:16:24;14.80;99.90
7206;DHT22;3644;53.480;10.004;2022-10-16T03:18:49;14.70;99.90
7206;DHT22;3644;53.480;10.004;2022-10-16T03:21:15;14.70;99.90
7206;DHT22;3644;53.480;10.004;2022-10-16T03:23:41;14.70;99.90
7206;DHT22;3644;53.480;10.004;2022-10-16T03:26:06;14.70;99.90
7206;DHT22;3644;53.480;10.004;2022-10-16T03:28:32;14.60;99.90
7206;DHT22;3644;53.480;10.004;2022-10-16T03:30:57;14.70;99.90
7206;DHT22;3644;53.480;10.004;2022-10-16T03:33:23;14.70;99.90
7206;DHT22;3644;53.480;10.004;2022-10-16T03:35:53;14.60;99.90
7206;DHT22;3644;53.480;10.004;2022-10-16T03:38:18;14.60;99.90
7206;DHT22;3644;53.480;10.004;2022-10-16T03:40:44;14.60;99.90
7206;DHT22;3644;53.480;10.004;2022-10-16T03:43:09;14.50;99.90
7206;DHT22;3644;53.480;10.004;2022-10-16T03:45:35;14.40;99.90
7206;DHT22;3644;53.480;10.004;2022-10-16T03:48:01;14.30;99.90
7206;DHT22;3644;53.480;10.004;2022-10-16T03:50:27;14.40;99.90
7206;DHT22;3644;53.480;10.004;2022-10-16T03:52:53;14.40;99.90
7206;DHT22;3644;53.480;10.004;2022-10-16T03:55:18;14.40;99.90
7206;DHT22;3644;53.480;10.004;2022-10-16T03:57:44;14.40;99.90
7206;DHT22;3644;53.480;10.004;2022-10-16T04:00:10;14.40;99.90
7206;DHT22;3644;53.480;10.004;2022-10-16T04:02:36;14.40;99.90
7206;DHT22;3644;53.480;10.004;2022-10-16T04:05:01;14.40;99.90
7206;DHT22;3644;53.480;10.004;2022-10-16T04:07:27;14.40;99.90
7206;DHT22;3644;53.480;10.004;2022-10-16T04:09:52;14.40;99.90
7206;DHT22;3644;53.480;10.004;2022-10-16T04:12:18;14.40;99.90
7206;DHT22;3644;53.480;10.004;2022-10-16T04:14:44;14.40;99.90
7206;DHT22;3644;53.480;10.004;2022-10-16T04:17:09;14.40;99.90
7206;DHT22;3644;53.480;10.004;2022-10-16T04:19:35;14.40;99.90
7206;DHT22;3644;53.480;10.004;2022-10-16T04:22:00;14.40;99.90
7206;DHT22;3644;53.480;10.004;2022-10-16T04:24:26;14.40;99.90
7206;DHT22;3644;53.480;10.004;2022-10-16T04:26:51;14.40;99.90
7206;DHT22;3644;53.480;10.004;2022-10-16T04:29:17;14.40;99.90
7206;DHT22;3644;53.480;10.004;2022-10-16T04:31:42;14.40;99.90
7206;DHT22;3644;53.480;10.004;2022-10-16T04:34:08;14.40;99.90
7206;DHT22;3644;53.480;10.004;2022-10-16T04:36:33;14.30;99.90
7206;DHT22;3644;53.480;10.004;2022-10-16T04:38:59;14.30;99.90
7206;DHT22;3644;53.480;10.004;2022-10-16T04:41:24;14.40;99.90
7206;DHT22;3644;53.480;10.004;2022-10-16T04:43:50;14.30;99.90
7206;DHT22;3644;53.480;10.004;2022-10-16T04:46:15;14.30;99.90
7206;DHT22;3644;53.480;10.004;2022-10-16T04:48:41;14.20;99.90
7206;DHT22;3644;53.480;10.004;2022-10-16T04:51:06;14.20;99.90
7206;DHT22;3644;53.480;10.004;2022-10-16T04:53:32;14.30;99.90
7206;DHT22;3644;53.480;10.004;2022-10-16T04:55:58;14.30;99.90
7206;DHT22;3644;53.480;10.004;2022-10-16T04:58:24;14.30;99.90
7206;DHT22;3644;53.480;10.004;2022-10-16T05:00:49;14.30;99.90
7206;DHT22;3644;53.480;10.004;2022-10-16T05:03:15;14.20;99.90
7206;DHT22;3644;53.480;10.004;2022-10-16T05:05:44;14.10;99.90
7206;DHT22;3644;53.480;10.004;2022-10-16T05:08:13;14.20;99.90
7206;DHT22;3644;53.480;10.004;2022-10-16T05:10:42;14.20;99.90
7206;DHT22;3644;53.480;10.004;2022-10-16T05:13:07;14.20;99.90
7206;DHT22;3644;53.480;10.004;2022-10-16T05:15:33;14.20;99.90
7206;DHT22;3644;53.480;10.004;2022-10-16T05:17:59;14.20;99.90
7206;DHT22;3644;53.480;10.004;2022-10-16T05:20:24;14.20;99.90
7206;DHT22;3644;53.480;10.004;2022-10-16T05:22:50;14.20;99.90
7206;DHT22;3644;53.480;10.004;2022-10-16T05:25:15;14.20;99.90
7206;DHT22;3644;53.480;10.004;2022-10-16T05:27:41;14.10;99.90
7206;DHT22;3644;53.480;10.004;2022-10-16T05:30:07;14.10;99.90
7206;DHT22;3644;53.480;10.004;2022-10-16T05:32:33;14.20;99.90
7206;DHT22;3644;53.480;10.004;2022-10-16T05:34:58;14.10;99.90
7206;DHT22;3644;53.480;10.004;2022-10-16T05:37:25;14.00;99.90
7206;DHT22;3644;53.480;10.004;2022-10-16T05:39:52;14.10;99.90
7206;DHT22;3644;53.480;10.004;2022-10-16T05:42:17;14.10;99.90
7206;DHT22;3644;53.480;10.004;2022-10-16T05:44:43;14.00;99.90
7206;DHT22;3644;53.480;10.004;2022-10-16T05:47:09;14.10;99.90
7206;DHT22;3644;53.480;10.004;2022-10-16T05:49:36;14.10;99.90
7206;DHT22;3644;53.480;10.004;2022-10-16T05:52:01;14.20;99.90
7206;DHT22;3644;53.480;10.004;2022-10-16T05:54:27;14.30;99.90
7206;DHT22;3644;53.480;10.004;2022-10-16T05:56:52;14.40;99.90
7206;DHT22;3644;53.480;10.004;2022-10-16T05:59:18;14.30;99.90
7206;DHT22;3644;53.480;10.004;2022-10-16T06:01:43;14.30;99.90
7206;DHT22;3644;53.480;10.004;2022-10-16T06:04:09;14.30;99.90
7206;DHT22;3644;53.480;10.004;2022-10-16T06:06:35;14.20;99.90
7206;DHT22;3644;53.480;10.004;2022-10-16T06:09:02;14.20;99.90
7206;DHT22;3644;53.480;10.004;2022-10-16T06:11:30;14.20;99.90
7206;DHT22;3644;53.480;10.004;2022-10-16T06:13:57;14.10;99.90
7206;DHT22;3644;53.480;10.004;2022-10-16T06:16:24;14.10;99.90
7206;DHT22;3644;53.480;10.004;2022-10-16T06:18:52;14.10;99.90
7206;DHT22;3644;53.480;10.004;2022-10-16T06:21:20;14.20;99.90
7206;DHT22;3644;53.480;10.004;2022-10-16T06:23:46;14.10;99.90
7206;DHT22;3644;53.480;10.004;2022-10-16T06:26:14;14.20;99.90
7206;DHT22;3644;53.480;10.004;2022-10-16T06:28:40;14.20;99.90
7206;DHT22;3644;53.480;10.004;2022-10-16T06:31:07;14.20;99.90
7206;DHT22;3644;53.480;10.004;2022-10-16T06:33:34;14.20;99.90
7206;DHT22;3644;53.480;10.004;2022-10-16T06:36:04;14.20;99.90
7206;DHT22;3644;53.480;10.004;2022-10-16T06:38:31;14.20;99.90
7206;DHT22;3644;53.480;10.004;2022-10-16T06:40:57;14.20;99.90
7206;DHT22;3644;53.480;10.004;2022-10-16T06:43:22;14.10;99.90
7206;DHT22;3644;53.480;10.004;2022-10-16T06:45:55;14.20;99.90
7206;DHT22;3644;53.480;10.004;2022-10-16T06:48:22;14.20;99.90
7206;DHT22;3644;53.480;10.004;2022-10-16T06:51:05;14.20;99.90
7206;DHT22;3644;53.480;10.004;2022-10-16T06:53:33;14.30;99.90
7206;DHT22;3644;53.480;10.004;2022-10-16T06:56:15;14.30;99.90
7206;DHT22;3644;53.480;10.004;2022-10-16T06:58:42;14.40;99.90
7206;DHT22;3644;53.480;10.004;2022-10-16T07:01:08;14.40;99.90
7206;DHT22;3644;53.480;10.004;2022-10-16T07:03:39;14.50;99.90
7206;DHT22;3644;53.480;10.004;2022-10-16T07:06:06;14.50;99.90
7206;DHT22;3644;53.480;10.004;2022-10-16T07:08:33;14.50;99.90
7206;DHT22;3644;53.480;10.004;2022-10-16T07:11:08;14.50;99.90
7206;DHT22;3644;53.480;10.004;2022-10-16T07:13:37;14.60;99.90
7206;DHT22;3644;53.480;10.004;2022-10-16T07:16:08;14.70;99.90
7206;DHT22;3644;53.480;10.004;2022-10-16T07:18:34;14.90;99.90
7206;DHT22;3644;53.480;10.004;2022-10-16T07:23:30;15.10;99.90
7206;DHT22;3644;53.480;10.004;2022-10-16T07:25:55;15.20;99.90
7206;DHT22;3644;53.480;10.004;2022-10-16T07:28:21;15.30;99.90
7206;DHT22;3644;53.480;10.004;2022-10-16T07:30:47;15.30;99.90
7206;DHT22;3644;53.480;10.004;2022-10-16T07:33:13;15.50;99.90
7206;DHT22;3644;53.480;10.004;2022-10-16T07:35:53;15.50;99.90
7206;DHT22;3644;53.480;10.004;2022-10-16T07:38:20;15.50;99.90
7206;DHT22;3644;53.480;10.004;2022-10-16T07:40:46;15.50;99.90
7206;DHT22;3644;53.480;10.004;2022-10-16T07:43:11;15.50;99.90
7206;DHT22;3644;53.480;10.004;2022-10-16T07:45:45;15.60;99.90
7206;DHT22;3644;53.480;10.004;2022-10-16T07:48:11;15.70;99.90
7206;DHT22;3644;53.480;10.004;2022-10-16T07:50:37;15.60;99.90
7206;DHT22;3644;53.480;10.004;2022-10-16T07:53:03;15.70;99.90
7206;DHT22;3644;53.480;10.004;2022-10-16T07:55:28;15.80;99.90
7206;DHT22;3644;53.480;10.004;2022-10-16T07:57:54;16.00;99.90
7206;DHT22;3644;53.480;10.004;2022-10-16T08:00:20;16.20;99.90
7206;DHT22;3644;53.480;10.004;2022-10-16T08:02:45;16.30;99.90
7206;DHT22;3644;53.480;10.004;2022-10-16T08:05:11;16.30;99.90
7206;DHT22;3644;53.480;10.004;2022-10-16T08:07:36;16.40;99.90
7206;DHT22;3644;53.480;10.004;2022-10-16T08:10:02;16.40;99.90
7206;DHT22;3644;53.480;10.004;2022-10-16T08:12:28;16.40;99.90
7206;DHT22;3644;53.480;10.004;2022-10-16T08:14:53;16.40;99.90
7206;DHT22;3644;53.480;10.004;2022-10-16T08:17:19;16.40;99.90
7206;DHT22;3644;53.480;10.004;2022-10-16T08:19:46;16.30;99.90
7206;DHT22;3644;53.480;10.004;2022-10-16T08:22:12;16.30;99.90
7206;DHT22;3644;53.480;10.004;2022-10-16T08:24:38;16.40;99.90
7206;DHT22;3644;53.480;10.004;2022-10-16T08:27:04;16.40;99.90
7206;DHT22;3644;53.480;10.004;2022-10-16T08:29:29;16.40;99.90
7206;DHT22;3644;53.480;10.004;2022-10-16T08:31:55;16.40;99.90
7206;DHT22;3644;53.480;10.004;2022-10-16T08:34:20;16.50;99.90
7206;DHT22;3644;53.480;10.004;2022-10-16T08:36:46;16.60;99.90
7206;DHT22;3644;53.480;10.004;2022-10-16T08:39:11;16.60;99.90
7206;DHT22;3644;53.480;10.004;2022-10-16T08:41:51;16.60;99.90
7206;DHT22;3644;53.480;10.004;2022-10-16T08:47:33;16.90;99.90
7206;DHT22;3644;53.480;10.004;2022-10-16T08:50:09;16.90;99.90
7206;DHT22;3644;53.480;10.004;2022-10-16T08:52:39;17.00;99.90
7206;DHT22;3644;53.480;10.004;2022-10-16T08:55:05;17.10;99.90
7206;DHT22;3644;53.480;10.004;2022-10-16T08:57:31;17.20;99.90
7206;DHT22;3644;53.480;10.004;2022-10-16T09:00:00;17.20;99.90
7206;DHT22;3644;53.480;10.004;2022-10-16T09:02:40;17.20;99.90
7206;DHT22;3644;53.480;10.004;2022-10-16T09:05:43;17.20;99.90
7206;DHT22;3644;53.480;10.004;2022-10-16T09:11:44;17.30;99.90
7206;DHT22;3644;53.480;10.004;2022-10-16T09:17:30;17.40;99.90
7206;DHT22;3644;53.480;10.004;2022-10-16T09:20:14;17.60;99.90
7206;DHT22;3644;53.480;10.004;2022-10-16T09:22:43;17.70;99.90
7206;DHT22;3644;53.480;10.004;2022-10-16T09:25:14;17.80;99.90
7206;DHT22;3644;53.480;10.004;2022-10-16T09:27:42;17.90;99.90
7206;DHT22;3644;53.480;10.004;2022-10-16T09:30:16;17.80;99.90
7206;DHT22;3644;53.480;10.004;2022-10-16T09:32:45;17.70;99.90
7206;DHT22;3644;53.480;10.004;2022-10-16T09:35:20;17.80;99.90
7206;DHT22;3644;53.480;10.004;2022-10-16T09:37:50;17.80;99.90
7206;DHT22;3644;53.480;10.004;2022-10-16T09:40:30;17.90;99.90
7206;DHT22;3644;53.480;10.004;2022-10-16T09:46:04;17.90;99.90
7206;DHT22;3644;53.480;10.004;2022-10-16T09:48:42;17.80;99.90
7206;DHT22;3644;53.480;10.004;2022-10-16T09:51:36;17.80;99.90
7206;DHT22;3644;53.480;10.004;2022-10-16T09:54:16;17.90;99.90
7206;DHT22;3644;53.480;10.004;2022-10-16T09:56:42;17.90;99.90
7206;DHT22;3644;53.480;10.004;2022-10-16T10:01:41;18.00;99.90
7206;DHT22;3644;53.480;10.004;2022-10-16T10:04:08;18.00;99.90
7206;DHT22;3644;53.480;10.004;2022-10-16T10:06:43;18.10;99.90
7206;DHT22;3644;53.480;10.004;2022-10-16T10:11:49;18.10;99.90
7206;DHT22;3644;53.480;10.004;2022-10-16T10:14:31;18.10;99.90
7206;DHT22;3644;53.480;10.004;2022-10-16T10:27:47;18.30;99.90
7206;DHT22;3644;53.480;10.004;2022-10-16T10:38:41;18.50;99.90
7206;DHT22;3644;53.480;10.004;2022-10-16T10:44:15;18.70;99.90
7206;DHT22;3644;53.480;10.004;2022-10-16T10:58:29;18.90;99.90
7206;DHT22;3644;53.480;10.004;2022-10-16T11:07:17;19.10;99.90
7206;DHT22;3644;53.480;10.004;2022-10-16T11:09:51;19.30;99.90
7206;DHT22;3644;53.480;10.004;2022-10-16T11:12:27;19.30;99.90
7206;DHT22;3644;53.480;10.004;2022-10-16T11:14:57;19.30;99.90
7206;DHT22;3644;53.480;10.004;2022-10-16T11:17:33;19.30;99.90
7206;DHT22;3644;53.480;10.004;2022-10-16T11:20:32;19.40;99.90
7206;DHT22;3644;53.480;10.004;2022-10-16T11:23:08;19.30;99.90
7206;DHT22;3644;53.480;10.004;2022-10-16T11:25:39;19.20;99.90
7206;DHT22;3644;53.480;10.004;2022-10-16T11:28:23;19.10;99.90
7206;DHT22;3644;53.480;10.004;2022-10-16T11:31:05;19.20;99.90
7206;DHT22;3644;53.480;10.004;2022-10-16T11:33:44;19.30;99.90
7206;DHT22;3644;53.480;10.004;2022-10-16T11:36:21;19.30;99.90
7206;DHT22;3644;53.480;10.004;2022-10-16T11:39:54;19.30;99.90
7206;DHT22;3644;53.480;10.004;2022-10-16T11:41:51;19.40;99.90
7206;DHT22;3644;53.480;10.004;2022-10-16T11:44:34;19.60;99.90
7206;DHT22;3644;53.480;10.004;2022-10-16T11:49:32;19.70;99.90
7206;DHT22;3644;53.480;10.004;2022-10-16T11:57:32;19.80;99.90
7206;DHT22;3644;53.480;10.004;2022-10-16T12:00:05;19.80;99.90
7206;DHT22;3644;53.480;10.004;2022-10-16T12:02:39;19.70;99.90
7206;DHT22;3644;53.480;10.004;2022-10-16T12:08:09;19.70;99.90
7206;DHT22;3644;53.480;10.004;2022-10-16T12:10:37;19.70;99.90
7206;DHT22;3644;53.480;10.004;2022-10-16T12:13:05;19.80;99.90
7206;DHT22;3644;53.480;10.004;2022-10-16T12:15:50;19.80;99.90
7206;DHT22;3644;53.480;10.004;2022-10-16T12:18:22;19.90;99.90
7206;DHT22;3644;53.480;10.004;2022-10-16T12:20:57;19.90;99.90
7206;DHT22;3644;53.480;10.004;2022-10-16T12:23:37;20.10;99.90
7206;DHT22;3644;53.480;10.004;2022-10-16T12:26:04;20.20;99.90
7206;DHT22;3644;53.480;10.004;2022-10-16T12:28:31;20.40;99.90
7206;DHT22;3644;53.480;10.004;2022-10-16T12:31:03;20.40;99.90
7206;DHT22;3644;53.480;10.004;2022-10-16T12:33:33;20.40;99.90
7206;DHT22;3644;53.480;10.004;2022-10-16T12:36:01;20.50;99.90
7206;DHT22;3644;53.480;10.004;2022-10-16T12:38:35;20.40;99.90
7206;DHT22;3644;53.480;10.004;2022-10-16T12:41:07;20.10;99.90
7206;DHT22;3644;53.480;10.004;2022-10-16T12:43:40;20.00;99.90
7206;DHT22;3644;53.480;10.004;2022-10-16T12:48:42;19.80;99.90
7206;DHT22;3644;53.480;10.004;2022-10-16T12:54:04;19.60;99.90
7206;DHT22;3644;53.480;10.004;2022-10-16T12:59:51;19.50;99.90
7206;DHT22;3644;53.480;10.004;2022-10-16T13:02:47;19.40;99.90
7206;DHT22;3644;53.480;10.004;2022-10-16T13:07:56;19.30;99.90
7206;DHT22;3644;53.480;10.004;2022-10-16T13:10:41;19.40;99.90
7206;DHT22;3644;53.480;10.004;2022-10-16T13:19:24;19.20;99.90
7206;DHT22;3644;53.480;10.004;2022-10-16T13:22:26;19.20;99.90
7206;DHT22;3644;53.480;10.004;2022-10-16T13:27:56;19.20;99.90
7206;DHT22;3644;53.480;10.004;2022-10-16T13:30:28;19.00;99.90
7206;DHT22;3644;53.480;10.004;2022-10-16T13:33:01;19.00;99.90
7206;DHT22;3644;53.480;10.004;2022-10-16T13:35:29;18.90;99.90
7206;DHT22;3644;53.480;10.004;2022-10-16T13:40:36;18.90;99.90
7206;DHT22;3644;53.480;10.004;2022-10-16T13:43:02;19.00;99.90
7206;DHT22;3644;53.480;10.004;2022-10-16T13:45:28;19.00;99.90
7206;DHT22;3644;53.480;10.004;2022-10-16T13:48:09;18.90;99.90
7206;DHT22;3644;53.480;10.004;2022-10-16T13:50:37;18.80;99.90
7206;DHT22;3644;53.480;10.004;2022-10-16T13:53:12;18.70;99.90
7206;DHT22;3644;53.480;10.004;2022-10-16T13:55:38;18.90;99.90
7206;DHT22;3644;53.480;10.004;2022-10-16T13:58:10;19.00;99.90
7206;DHT22;3644;53.480;10.004;2022-10-16T14:00:37;19.10;99.90
7206;DHT22;3644;53.480;10.004;2022-10-16T14:03:12;19.20;99.90
7206;DHT22;3644;53.480;10.004;2022-10-16T14:05:53;19.20;99.90
7206;DHT22;3644;53.480;10.004;2022-10-16T14:08:19;19.30;99.90
7206;DHT22;3644;53.480;10.004;2022-10-16T14:10:49;19.40;99.90
7206;DHT22;3644;53.480;10.004;2022-10-16T14:13:19;19.50;99.90
7206;DHT22;3644;53.480;10.004;2022-10-16T14:15:48;19.50;99.90
7206;DHT22;3644;53.480;10.004;2022-10-16T14:18:21;19.40;99.90
7206;DHT22;3644;53.480;10.004;2022-10-16T14:20:48;19.30;99.90
7206;DHT22;3644;53.480;10.004;2022-10-16T14:23:29;19.30;99.90
7206;DHT22;3644;53.480;10.004;2022-10-16T14:26:13;19.20;99.90
7206;DHT22;3644;53.480;10.004;2022-10-16T14:28:40;19.20;99.90
7206;DHT22;3644;53.480;10.004;2022-10-16T14:31:26;19.10;99.90
7206;DHT22;3644;53.480;10.004;2022-10-16T14:33:53;19.20;99.90
7206;DHT22;3644;53.480;10.004;2022-10-16T14:36:19;19.20;99.90
7206;DHT22;3644;53.480;10.004;2022-10-16T14:39:18;19.30;99.90
7206;DHT22;3644;53.480;10.004;2022-10-16T14:41:47;19.40;99.90
7206;DHT22;3644;53.480;10.004;2022-10-16T14:44:14;19.30;99.90
7206;DHT22;3644;53.480;10.004;2022-10-16T14:46:41;19.20;99.90
7206;DHT22;3644;53.480;10.004;2022-10-16T14:51:37;19.30;99.90
7206;DHT22;3644;53.480;10.004;2022-10-16T14:54:03;19.20;99.90
7206;DHT22;3644;53.480;10.004;2022-10-16T14:56:44;19.10;99.90
7206;DHT22;3644;53.480;10.004;2022-10-16T14:59:16;19.00;99.90
7206;DHT22;3644;53.480;10.004;2022-10-16T15:01:43;18.90;99.90
7206;DHT22;3644;53.480;10.004;2022-10-16T15:04:11;19.00;99.90
7206;DHT22;3644;53.480;10.004;2022-10-16T15:06:37;19.10;99.90
7206;DHT22;3644;53.480;10.004;2022-10-16T15:09:03;19.10;99.90
7206;DHT22;3644;53.480;10.004;2022-10-16T15:11:29;19.10;99.90
7206;DHT22;3644;53.480;10.004;2022-10-16T15:13:56;19.10;99.90
7206;DHT22;3644;53.480;10.004;2022-10-16T15:16:21;18.90;99.90
7206;DHT22;3644;53.480;10.004;2022-10-16T15:18:47;18.90;99.90
7206;DHT22;3644;53.480;10.004;2022-10-16T15:21:29;18.80;99.90
7206;DHT22;3644;53.480;10.004;2022-10-16T15:23:56;18.70;99.90
7206;DHT22;3644;53.480;10.004;2022-10-16T15:26:23;18.60;99.90
7206;DHT22;3644;53.480;10.004;2022-10-16T15:28:48;18.60;99.90
7206;DHT22;3644;53.480;10.004;2022-10-16T15:31:14;18.50;99.90
7206;DHT22;3644;53.480;10.004;2022-10-16T15:33:39;18.50;99.90
7206;DHT22;3644;53.480;10.004;2022-10-16T15:36:06;18.40;99.90
7206;DHT22;3644;53.480;10.004;2022-10-16T15:38:31;18.40;99.90
7206;DHT22;3644;53.480;10.004;2022-10-16T15:40:57;18.30;99.90
7206;DHT22;3644;53.480;10.004;2022-10-16T15:43:22;18.40;99.90
7206;DHT22;3644;53.480;10.004;2022-10-16T15:46:02;18.30;99.90
7206;DHT22;3644;53.480;10.004;2022-10-16T15:48:29;18.30;99.90
7206;DHT22;3644;53.480;10.004;2022-10-16T15:50:55;18.30;99.90
7206;DHT22;3644;53.480;10.004;2022-10-16T15:53:21;18.30;99.90
7206;DHT22;3644;53.480;10.004;2022-10-16T15:55:46;18.10;99.90
7206;DHT22;3644;53.480;10.004;2022-10-16T15:58:12;18.10;99.90
7206;DHT22;3644;53.480;10.004;2022-10-16T16:00:37;18.10;99.90
7206;DHT22;3644;53.480;10.004;2022-10-16T16:03:04;18.10;99.90
7206;DHT22;3644;53.480;10.004;2022-10-16T16:05:29;18.00;99.90
7206;DHT22;3644;53.480;10.004;2022-10-16T16:07:56;17.90;99.90
7206;DHT22;3644;53.480;10.004;2022-10-16T16:10:22;17.90;99.90
7206;DHT22;3644;53.480;10.004;2022-10-16T16:12:48;17.70;99.90
7206;DHT22;3644;53.480;10.004;2022-10-16T16:15:17;17.80;99.90
7206;DHT22;3644;53.480;10.004;2022-10-16T16:17:43;17.70;99.90
7206;DHT22;3644;53.480;10.004;2022-10-16T16:20:10;17.70;99.90
7206;DHT22;3644;53.480;10.004;2022-10-16T16:22:35;17.60;99.90
7206;DHT22;3644;53.480;10.004;2022-10-16T16:25:01;17.50;99.90
7206;DHT22;3644;53.480;10.004;2022-10-16T16:27:27;17.40;99.90
7206;DHT22;3644;53.480;10.004;2022-10-16T16:29:55;17.30;99.90
7206;DHT22;3644;53.480;10.004;2022-10-16T16:32:20;17.30;99.90
7206;DHT22;3644;53.480;10.004;2022-10-16T16:34:46;17.20;99.90
7206;DHT22;3644;53.480;10.004;2022-10-16T16:37:12;17.10;99.90
7206;DHT22;3644;53.480;10.004;2022-10-16T16:39:38;17.00;99.90
7206;DHT22;3644;53.480;10.004;2022-10-16T16:42:03;16.90;99.90
7206;DHT22;3644;53.480;10.004;2022-10-16T16:44:31;16.80;99.90
7206;DHT22;3644;53.480;10.004;2022-10-16T16:46:57;16.80;99.90
7206;DHT22;3644;53.480;10.004;2022-10-16T16:49:22;16.70;99.90
7206;DHT22;3644;53.480;10.004;2022-10-16T16:51:48;16.60;99.90
7206;DHT22;3644;53.480;10.004;2022-10-16T16:54:14;16.60;99.90
7206;DHT22;3644;53.480;10.004;2022-10-16T16:56:39;16.50;99.90
7206;DHT22;3644;53.480;10.004;2022-10-16T16:59:15;16.50;99.90
7206;DHT22;3644;53.480;10.004;2022-10-16T17:01:41;16.40;99.90
7206;DHT22;3644;53.480;10.004;2022-10-16T17:04:07;16.30;99.90
7206;DHT22;3644;53.480;10.004;2022-10-16T17:06:33;16.30;99.90
7206;DHT22;3644;53.480;10.004;2022-10-16T17:09:00;16.20;99.90
7206;DHT22;3644;53.480;10.004;2022-10-16T17:11:27;16.20;99.90
7206;DHT22;3644;53.480;10.004;2022-10-16T17:13:55;16.10;99.90
7206;DHT22;3644;53.480;10.004;2022-10-16T17:16:22;16.10;99.90
7206;DHT22;3644;53.480;10.004;2022-10-16T17:18:48;16.10;99.90
7206;DHT22;3644;53.480;10.004;2022-10-16T17:21:14;16.10;99.90
7206;DHT22;3644;53.480;10.004;2022-10-16T17:23:39;16.00;99.90
7206;DHT22;3644;53.480;10.004;2022-10-16T17:26:14;15.90;99.90
7206;DHT22;3644;53.480;10.004;2022-10-16T17:28:41;15.90;99.90
7206;DHT22;3644;53.480;10.004;2022-10-16T17:31:09;15.80;99.90
7206;DHT22;3644;53.480;10.004;2022-10-16T17:33:35;15.80;99.90
7206;DHT22;3644;53.480;10.004;2022-10-16T17:36:00;15.70;99.90
7206;DHT22;3644;53.480;10.004;2022-10-16T17:38:26;15.70;99.90
7206;DHT22;3644;53.480;10.004;2022-10-16T17:40:51;15.70;99.90
7206;DHT22;3644;53.480;10.004;2022-10-16T17:43:17;15.60;99.90
7206;DHT22;3644;53.480;10.004;2022-10-16T17:45:42;15.60;99.90
7206;DHT22;3644;53.480;10.004;2022-10-16T17:48:08;15.50;99.90